sensor_id;sensor_type;location;lat;lon;timestamp;temperature;humidity
52275;DHT22;38228;50.940;4.024;2024-02-15T00:00:21;13.10;99.90
52275;DHT22;38228;50.940;4.024;2024-02-15T00:02:48;13.10;99.90
52275;DHT22;38228;50.940;4.024;2024-02-15T00:05:14;13.20;99.90
52275;DHT22;38228;50.940;4.024;2024-02-15T00:07:42;13.20;99.90
52275;DHT22;38228;50.940;4.024;2024-02-15T00:10:09;13.10;99.90
52275;DHT22;38228;50.940;4.024;2024-02-15T00:12:35;13.10;99.90
52275;DHT22;38228;50.940;4.024;2024-02-15T00:15:01;13.10;99.90
52275;DHT22;38228;50.940;4.024;2024-02-15T00:17:27;13.10;99.90
52275;DHT22;38228;50.940;4.024;2024-02-15T00:19:55;13.10;99.90
52275;DHT22;38228;50.940;4.024;2024-02-15T00:22:20;13.20;99.90
52275;DHT22;38228;50.940;4.024;2024-02-15T00:24:47;13.20;99.90
52275;DHT22;38228;50.940;4.024;2024-02-15T00:27:15;13.10;99.90
52275;DHT22;38228;50.940;4.024;2024-02-15T00:29:41;13.10;99.90
52275;DHT22;38228;50.940;4.024;2024-02-15T00:32:07;13.20;99.90
52275;DHT22;38228;50.940;4.024;2024-02-15T00:34:32;13.10;99.90
52275;DHT22;38228;50.940;4.024;2024-02-15T00:36:59;13.10;99.90
52275;DHT22;38228;50.940;4.024;2024-02-15T00:39:25;13.00;99.90
52275;DHT22;38228;50.940;4.024;2024-02-15T00:41:50;13.10;99.90
52275;DHT22;38228;50.940;4.024;2024-02-15T00:44:16;13.10;99.90
52275;DHT22;38228;50.940;4.024;2024-02-15T00:46:43;13.10;99.90
52275;DHT22;38228;50.940;4.024;2024-02-15T00:49:09;13.10;99.90
52275;DHT22;38228;50.940;4.024;2024-02-15T00:51:35;13.00;99.90
52275;DHT22;38228;50.940;4.024;2024-02-15T00:54:02;13.00;99.90
52275;DHT22;38228;50.940;4.024;2024-02-15T00:56:28;13.00;99.90
52275;DHT22;38228;50.940;4.024;2024-02-15T00:58:56;13.00;99.90
52275;DHT22;38228;50.940;4.024;2024-02-15T01:01:22;13.00;99.90
52275;DHT22;38228;50.940;4.024;2024-02-15T01:03:48;13.00;99.90
52275;DHT22;38228;50.940;4.024;2024-02-15T01:06:13;13.00;99.90
52275;DHT22;38228;50.940;4.024;2024-02-15T01:08:39;13.10;99.90
52275;DHT22;38228;50.940;4.024;2024-02-15T01:11:05;13.00;99.90
52275;DHT22;38228;50.940;4.024;2024-02-15T01:13:32;13.00;99.90
52275;DHT22;38228;50.940;4.024;2024-02-15T01:15:58;13.10;99.90
52275;DHT22;38228;50.940;4.024;2024-02-15T01:18:23;13.10;99.90
52275;DHT22;38228;50.940;4.024;2024-02-15T01:20:49;13.00;99.90
52275;DHT22;38228;50.940;4.024;2024-02-15T01:23:15;13.10;99.90
52275;DHT22;38228;50.940;4.024;2024-02-15T01:25:41;13.10;99.90
52275;DHT22;38228;50.940;4.024;2024-02-15T01:28:06;13.10;99.90
52275;DHT22;38228;50.940;4.024;2024-02-15T01:30:32;13.20;99.90
52275;DHT22;38228;50.940;4.024;2024-02-15T01:32:58;13.20;99.90
52275;DHT22;38228;50.940;4.024;2024-02-15T01:35:25;13.20;99.90
52275;DHT22;38228;50.940;4.024;2024-02-15T01:37:51;13.00;99.90
52275;DHT22;38228;50.940;4.024;2024-02-15T01:40:17;13.00;99.90
52275;DHT22;38228;50.940;4.024;2024-02-15T01:42:45;13.10;99.90
52275;DHT22;38228;50.940;4.024;2024-02-15T01:45:10;13.10;99.90
52275;DHT22;38228;50.940;4.024;2024-02-15T01:47:39;13.10;99.90
52275;DHT22;38228;50.940;4.024;2024-02-15T01:50:12;13.10;99.90
52275;DHT22;38228;50.940;4.024;2024-02-15T01:52:39;13.10;99.90
52275;DHT22;38228;50.940;4.024;2024-02-15T01:55:06;13.10;99.90
52275;DHT22;38228;50.940;4.024;2024-02-15T01:57:35;13.00;99.90
52275;DHT22;38228;50.940;4.024;2024-02-15T02:00:04;13.00;99.90
52275;DHT22;38228;50.940;4.024;2024-02-15T02:02:32;13.10;99.90
52275;DHT22;38228;50.940;4.024;2024-02-15T02:04:58;13.20;99.90
52275;DHT22;38228;50.940;4.024;2024-02-15T02:07:24;13.20;99.90
52275;DHT22;38228;50.940;4.024;2024-02-15T02:09:49;13.30;99.90
52275;DHT22;38228;50.940;4.024;2024-02-15T02:12:15;13.30;99.90
52275;DHT22;38228;50.940;4.024;2024-02-15T02:14:43;13.30;99.90
52275;DHT22;38228;50.940;4.024;2024-02-15T02:17:15;13.20;99.90
52275;DHT22;38228;50.940;4.024;2024-02-15T02:19:42;13.10;99.90
52275;DHT22;38228;50.940;4.024;2024-02-15T02:22:09;13.10;99.90
52275;DHT22;38228;50.940;4.024;2024-02-15T02:24:44;13.20;99.90
52275;DHT22;38228;50.940;4.024;2024-02-15T02:27:13;13.20;99.90
52275;DHT22;38228;50.940;4.024;2024-02-15T02:29:43;13.20;99.90
52275;DHT22;38228;50.940;4.024;2024-02-15T02:32:12;13.20;99.90
52275;DHT22;38228;50.940;4.024;2024-02-15T02:34:38;13.20;99.90
52275;DHT22;38228;50.940;4.024;2024-02-15T02:37:06;13.30;99.90
52275;DHT22;38228;50.940;4.024;2024-02-15T02:39:34;13.30;99.90
52275;DHT22;38228;50.940;4.024;2024-02-15T02:42:00;13.40;99.90
52275;DHT22;38228;50.940;4.024;2024-02-15T02:44:26;13.30;99.90
52275;DHT22;38228;50.940;4.024;2024-02-15T02:46:51;13.30;99.90
52275;DHT22;38228;50.940;4.024;2024-02-15T02:49:17;13.30;99.90
52275;DHT22;38228;50.940;4.024;2024-02-15T02:51:42;13.30;99.90
52275;DHT22;38228;50.940;4.024;2024-02-15T02:54:08;13.40;99.90
52275;DHT22;38228;50.940;4.024;2024-02-15T02:56:34;13.50;99.90
52275;DHT22;38228;50.940;4.024;2024-02-15T02:59:00;13.60;99.90
52275;DHT22;38228;50.940;4.024;2024-02-15T03:01:25;13.40;99.90
52275;DHT22;38228;50.940;4.024;2024-02-15T03:03:52;13.30;99.90
52275;DHT22;38228;50.940;4.024;2024-02-15T03:06:21;13.30;99.90
52275;DHT22;38228;50.940;4.024;2024-02-15T03:08:47;13.30;99.90
52275;DHT22;38228;50.940;4.024;2024-02-15T03:11:13;13.30;99.90
52275;DHT22;38228;50.940;4.024;2024-02-15T03:13:40;13.40;99.90
52275;DHT22;38228;50.940;4.024;2024-02-15T03:16:05;13.30;99.90
52275;DHT22;38228;50.940;4.024;2024-02-15T03:18:31;13.30;99.90
52275;DHT22;38228;50.940;4.024;2024-02-15T03:20:58;13.30;99.90
52275;DHT22;38228;50.940;4.024;2024-02-15T03:23:24;13.30;99.90
52275;DHT22;38228;50.940;4.024;2024-02-15T03:25:50;13.20;99.90
52275;DHT22;38228;50.940;4.024;2024-02-15T03:28:15;13.30;99.90
52275;DHT22;38228;50.940;4.024;2024-02-15T03:30:42;13.10;99.90
52275;DHT22;38228;50.940;4.024;2024-02-15T03:33:08;13.20;99.90
52275;DHT22;38228;50.940;4.024;2024-02-15T03:35:34;13.20;99.90
52275;DHT22;38228;50.940;4.024;2024-02-15T03:38:00;13.10;99.90
52275;DHT22;38228;50.940;4.024;2024-02-15T03:40:26;13.10;99.90
52275;DHT22;38228;50.940;4.024;2024-02-15T03:42:55;13.10;99.90
52275;DHT22;38228;50.940;4.024;2024-02-15T03:45:22;13.00;99.90
52275;DHT22;38228;50.940;4.024;2024-02-15T03:47:54;12.90;99.90
52275;DHT22;38228;50.940;4.024;2024-02-15T03:50:21;12.90;99.90
52275;DHT22;38228;50.940;4.024;2024-02-15T03:52:47;12.90;99.90
52275;DHT22;38228;50.940;4.024;2024-02-15T03:55:13;12.90;99.90
52275;DHT22;38228;50.940;4.024;2024-02-15T03:57:40;13.00;99.90
52275;DHT22;38228;50.940;4.024;2024-02-15T04:00:12;13.00;99.90
52275;DHT22;38228;50.940;4.024;2024-02-15T04:02:46;12.80;99.90
52275;DHT22;38228;50.940;4.024;2024-02-15T04:05:13;12.80;99.90
52275;DHT22;38228;50.940;4.024;2024-02-15T04:07:38;12.80;99.90
52275;DHT22;38228;50.940;4.024;2024-02-15T04:10:05;12.80;99.90
52275;DHT22;38228;50.940;4.024;2024-02-15T04:12:32;12.80;99.90
52275;DHT22;38228;50.940;4.024;2024-02-15T04:14:58;12.80;99.90
52275;DHT22;38228;50.940;4.024;2024-02-15T04:17:37;12.80;99.90
52275;DHT22;38228;50.940;4.024;2024-02-15T04:20:04;12.80;99.90
52275;DHT22;38228;50.940;4.024;2024-02-15T04:22:32;12.80;99.90
52275;DHT22;38228;50.940;4.024;2024-02-15T04:25:05;12.70;99.90
52275;DHT22;38228;50.940;4.024;2024-02-15T04:27:32;12.70;99.90
52275;DHT22;38228;50.940;4.024;2024-02-15T04:29:58;12.70;99.90
52275;DHT22;38228;50.940;4.024;2024-02-15T04:32:23;12.80;99.90
52275;DHT22;38228;50.940;4.024;2024-02-15T04:34:49;12.80;99.90
52275;DHT22;38228;50.940;4.024;2024-02-15T04:37:15;12.80;99.90
52275;DHT22;38228;50.940;4.024;2024-02-15T04:39:42;12.80;99.90
52275;DHT22;38228;50.940;4.024;2024-02-15T04:42:08;12.80;99.90
52275;DHT22;38228;50.940;4.024;2024-02-15T04:44:38;12.70;99.90
52275;DHT22;38228;50.940;4.024;2024-02-15T04:47:05;12.70;99.90
52275;DHT22;38228;50.940;4.024;2024-02-15T04:49:31;12.80;99.90
52275;DHT22;38228;50.940;4.024;2024-02-15T04:51:57;12.80;99.90
52275;DHT22;38228;50.940;4.024;2024-02-15T04:54:23;12.80;99.90
52275;DHT22;38228;50.940;4.024;2024-02-15T04:56:49;12.90;99.90
52275;DHT22;38228;50.940;4.024;2024-02-15T04:59:20;13.00;99.90
52275;DHT22;38228;50.940;4.024;2024-02-15T05:01:47;12.90;99.90
52275;DHT22;38228;50.940;4.024;2024-02-15T05:04:14;12.90;99.90
52275;DHT22;38228;50.940;4.024;2024-02-15T05:06:40;12.90;99.90
52275;DHT22;38228;50.940;4.024;2024-02-15T05:09:06;12.80;99.90
52275;DHT22;38228;50.940;4.024;2024-02-15T05:11:39;12.80;99.90
52275;DHT22;38228;50.940;4.024;2024-02-15T05:14:15;12.80;99.90
52275;DHT22;38228;50.940;4.024;2024-02-15T05:16:49;12.70;99.90
52275;DHT22;38228;50.940;4.024;2024-02-15T05:19:15;12.80;99.90
52275;DHT22;38228;50.940;4.024;2024-02-15T05:21:42;12.90;99.90
52275;DHT22;38228;50.940;4.024;2024-02-15T05:24:13;12.90;99.90
52275;DHT22;38228;50.940;4.024;2024-02-15T05:26:43;12.90;99.90
52275;DHT22;38228;50.940;4.024;2024-02-15T05:29:12;12.90;99.90
52275;DHT22;38228;50.940;4.024;2024-02-15T05:31:38;12.90;99.90
52275;DHT22;38228;50.940;4.024;2024-02-15T05:34:06;12.80;99.90
52275;DHT22;38228;50.940;4.024;2024-02-15T05:36:37;12.80;99.90
52275;DHT22;38228;50.940;4.024;2024-02-15T05:39:04;12.80;99.90
52275;DHT22;38228;50.940;4.024;2024-02-15T05:41:30;12.80;99.90
52275;DHT22;38228;50.940;4.024;2024-02-15T05:43:58;12.80;99.90
52275;DHT22;38228;50.940;4.024;2024-02-15T05:46:25;12.90;99.90
52275;DHT22;38228;50.940;4.024;2024-02-15T05:48:51;12.80;99.90
52275;DHT22;38228;50.940;4.024;2024-02-15T05:51:19;12.80;99.90
52275;DHT22;38228;50.940;4.024;2024-02-15T05:53:45;12.80;99.90
52275;DHT22;38228;50.940;4.024;2024-02-15T05:56:11;12.80;99.90
52275;DHT22;38228;50.940;4.024;2024-02-15T05:58:38;12.80;99.90
52275;DHT22;38228;50.940;4.024;2024-02-15T06:01:05;12.80;99.90
52275;DHT22;38228;50.940;4.024;2024-02-15T06:03:33;12.80;99.90
52275;DHT22;38228;50.940;4.024;2024-02-15T06:06:03;12.70;99.90
52275;DHT22;38228;50.940;4.024;2024-02-15T06:08:32;12.70;99.90
52275;DHT22;38228;50.940;4.024;2024-02-15T06:10:58;12.70;99.90
52275;DHT22;38228;50.940;4.024;2024-02-15T06:13:25;12.70;99.90
52275;DHT22;38228;50.940;4.024;2024-02-15T06:15:52;12.70;99.90
52275;DHT22;38228;50.940;4.024;2024-02-15T06:18:29;12.80;99.90
52275;DHT22;38228;50.940;4.024;2024-02-15T06:20:59;12.90;99.90
52275;DHT22;38228;50.940;4.024;2024-02-15T06:23:25;12.90;99.90
52275;DHT22;38228;50.940;4.024;2024-02-15T06:25:53;12.90;99.90
52275;DHT22;38228;50.940;4.024;2024-02-15T06:28:20;12.90;99.90
52275;DHT22;38228;50.940;4.024;2024-02-15T06:31:05;12.90;99.90
52275;DHT22;38228;50.940;4.024;2024-02-15T06:33:50;12.90;99.90
52275;DHT22;38228;50.940;4.024;2024-02-15T06:36:37;12.90;99.90
52275;DHT22;38228;50.940;4.024;2024-02-15T06:39:23;13.00;99.90
52275;DHT22;38228;50.940;4.024;2024-02-15T06:42:06;12.80;99.90
52275;DHT22;38228;50.940;4.024;2024-02-15T06:44:32;12.90;99.90
52275;DHT22;38228;50.940;4.024;2024-02-15T06:46:58;12.90;99.90
52275;DHT22;38228;50.940;4.024;2024-02-15T06:49:25;12.90;99.90
52275;DHT22;38228;50.940;4.024;2024-02-15T06:51:51;12.90;99.90
52275;DHT22;38228;50.940;4.024;2024-02-15T06:54:17;12.90;99.90
52275;DHT22;38228;50.940;4.024;2024-02-15T06:56:44;12.80;99.90
52275;DHT22;38228;50.940;4.024;2024-02-15T06:59:14;12.80;99.90
52275;DHT22;38228;50.940;4.024;2024-02-15T07:01:43;12.90;99.90
52275;DHT22;38228;50.940;4.024;2024-02-15T07:04:09;12.90;99.90
52275;DHT22;38228;50.940;4.024;2024-02-15T07:06:38;13.00;99.90
52275;DHT22;38228;50.940;4.024;2024-02-15T07:09:07;13.00;99.90
52275;DHT22;38228;50.940;4.024;2024-02-15T07:11:33;12.90;99.90
52275;DHT22;38228;50.940;4.024;2024-02-15T07:14:02;12.90;99.90
52275;DHT22;38228;50.940;4.024;2024-02-15T07:16:30;12.90;99.90
52275;DHT22;38228;50.940;4.024;2024-02-15T07:18:56;12.90;99.90
52275;DHT22;38228;50.940;4.024;2024-02-15T07:21:22;13.00;99.90
52275;DHT22;38228;50.940;4.024;2024-02-15T07:23:55;13.00;99.90
52275;DHT22;38228;50.940;4.024;2024-02-15T07:26:23;13.00;99.90
52275;DHT22;38228;50.940;4.024;2024-02-15T07:28:51;12.90;99.90
52275;DHT22;38228;50.940;4.024;2024-02-15T07:31:18;12.90;99.90
52275;DHT22;38228;50.940;4.024;2024-02-15T07:33:44;12.80;99.90
52275;DHT22;38228;50.940;4.024;2024-02-15T07:36:10;12.90;99.90
52275;DHT22;38228;50.940;4.024;2024-02-15T07:38:35;13.00;99.90
52275;DHT22;38228;50.940;4.024;2024-02-15T07:41:01;13.00;99.90
52275;DHT22;38228;50.940;4.024;2024-02-15T07:43:27;13.10;99.90
52275;DHT22;38228;50.940;4.024;2024-02-15T07:45:53;13.20;99.90
52275;DHT22;38228;50.940;4.024;2024-02-15T07:48:18;13.20;99.90
52275;DHT22;38228;50.940;4.024;2024-02-15T07:50:45;13.30;99.90
52275;DHT22;38228;50.940;4.024;2024-02-15T07:53:10;13.20;99.90
52275;DHT22;38228;50.940;4.024;2024-02-15T07:55:37;13.30;99.90
52275;DHT22;38228;50.940;4.024;2024-02-15T07:58:04;13.40;99.90
52275;DHT22;38228;50.940;4.024;2024-02-15T08:00:30;13.20;99.90
52275;DHT22;38228;50.940;4.024;2024-02-15T08:02:56;13.40;99.90
52275;DHT22;38228;50.940;4.024;2024-02-15T08:05:23;13.40;99.90
52275;DHT22;38228;50.940;4.024;2024-02-15T08:07:48;13.40;99.90
52275;DHT22;38228;50.940;4.024;2024-02-15T08:10:15;13.40;99.90
52275;DHT22;38228;50.940;4.024;2024-02-15T08:12:45;13.50;99.90
52275;DHT22;38228;50.940;4.024;2024-02-15T08:15:12;13.50;99.90
52275;DHT22;38228;50.940;4.024;2024-02-15T08:17:42;13.40;99.90
52275;DHT22;38228;50.940;4.024;2024-02-15T08:20:10;13.40;99.90
52275;DHT22;38228;50.940;4.024;2024-02-15T08:22:37;13.50;99.90
52275;DHT22;38228;50.940;4.024;2024-02-15T08:25:11;13.50;99.90
52275;DHT22;38228;50.940;4.024;2024-02-15T08:27:43;13.60;99.90
52275;DHT22;38228;50.940;4.024;2024-02-15T08:30:12;13.70;99.90
52275;DHT22;38228;50.940;4.024;2024-02-15T08:32:39;13.70;99.90
52275;DHT22;38228;50.940;4.024;2024-02-15T08:35:08;13.80;99.90
52275;DHT22;38228;50.940;4.024;2024-02-15T08:37:37;13.80;99.90
52275;DHT22;38228;50.940;4.024;2024-02-15T08:40:05;13.90;99.90
52275;DHT22;38228;50.940;4.024;2024-02-15T08:42:43;13.80;99.90
52275;DHT22;38228;50.940;4.024;2024-02-15T08:45:10;13.80;99.90
52275;DHT22;38228;50.940;4.024;2024-02-15T08:47:42;13.80;99.90
52275;DHT22;38228;50.940;4.024;2024-02-15T08:50:09;13.80;99.90
52275;DHT22;38228;50.940;4.024;2024-02-15T08:52:39;14.00;99.90
52275;DHT22;38228;50.940;4.024;2024-02-15T08:55:09;14.10;99.90
52275;DHT22;38228;50.940;4.024;2024-02-15T08:57:35;14.10;99.90
52275;DHT22;38228;50.940;4.024;2024-02-15T09:00:05;14.10;99.90
52275;DHT22;38228;50.940;4.024;2024-02-15T09:02:39;14.30;99.90
52275;DHT22;38228;50.940;4.024;2024-02-15T09:05:06;14.30;99.90
52275;DHT22;38228;50.940;4.024;2024-02-15T09:07:32;14.40;99.90
52275;DHT22;38228;50.940;4.024;2024-02-15T09:09:58;14.40;99.90
52275;DHT22;38228;50.940;4.024;2024-02-15T09:12:24;14.40;99.90
52275;DHT22;38228;50.940;4.024;2024-02-15T09:14:49;14.50;99.90
52275;DHT22;38228;50.940;4.024;2024-02-15T09:17:15;14.60;99.90
52275;DHT22;38228;50.940;4.024;2024-02-15T09:19:41;14.60;99.90
52275;DHT22;38228;50.940;4.024;2024-02-15T09:22:07;14.60;99.90
52275;DHT22;38228;50.940;4.024;2024-02-15T09:24:32;14.60;99.90
52275;DHT22;38228;50.940;4.024;2024-02-15T09:27:02;14.60;99.90
52275;DHT22;38228;50.940;4.024;2024-02-15T09:29:31;14.60;99.90
52275;DHT22;38228;50.940;4.024;2024-02-15T09:32:00;14.70;99.90
52275;DHT22;38228;50.940;4.024;2024-02-15T09:34:30;14.70;99.90
52275;DHT22;38228;50.940;4.024;2024-02-15T09:36:55;14.80;99.90
52275;DHT22;38228;50.940;4.024;2024-02-15T09:39:22;14.90;99.90
52275;DHT22;38228;50.940;4.024;2024-02-15T09:41:48;15.10;99.90
52275;DHT22;38228;50.940;4.024;2024-02-15T09:44:21;15.00;99.90
52275;DHT22;38228;50.940;4.024;2024-02-15T09:46:52;15.10;99.90
52275;DHT22;38228;50.940;4.024;2024-02-15T09:49:20;15.10;99.90
52275;DHT22;38228;50.940;4.024;2024-02-15T09:51:47;15.00;99.90
52275;DHT22;38228;50.940;4.024;2024-02-15T09:54:15;15.10;99.90
52275;DHT22;38228;50.940;4.024;2024-02-15T09:56:49;15.20;99.90
52275;DHT22;38228;50.940;4.024;2024-02-15T09:59:16;15.20;99.90
52275;DHT22;38228;50.940;4.024;2024-02-15T10:01:42;15.10;99.90
52275;DHT22;38228;50.940;4.024;2024-02-15T10:04:09;15.20;99.90
52275;DHT22;38228;50.940;4.024;2024-02-15T10:06:38;15.30;99.90
52275;DHT22;38228;50.940;4.024;2024-02-15T10:09:26;15.30;99.90
52275;DHT22;38228;50.940;4.024;2024-02-15T10:11:57;15.50;99.90
52275;DHT22;38228;50.940;4.024;2024-02-15T10:14:26;15.60;99.90
52275;DHT22;38228;50.940;4.024;2024-02-15T10:16:53;15.70;99.90
52275;DHT22;38228;50.940;4.024;2024-02-15T10:19:22;15.60;99.90
52275;DHT22;38228;50.940;4.024;2024-02-15T10:21:54;15.60;99.90
52275;DHT22;38228;50.940;4.024;2024-02-15T10:24:23;15.70;99.90
52275;DHT22;38228;50.940;4.024;2024-02-15T10:27:01;15.60;99.90
52275;DHT22;38228;50.940;4.024;2024-02-15T10:29:30;15.80;99.90
52275;DHT22;38228;50.940;4.024;2024-02-15T10:31:57;15.80;99.90
52275;DHT22;38228;50.940;4.024;2024-02-15T10:34:24;16.00;99.90
52275;DHT22;38228;50.940;4.024;2024-02-15T10:37:09;15.90;99.90
52275;DHT22;38228;50.940;4.024;2024-02-15T10:39:36;16.00;99.90
52275;DHT22;38228;50.940;4.024;2024-02-15T10:42:03;16.00;99.90
52275;DHT22;38228;50.940;4.024;2024-02-15T10:44:31;16.10;99.90
52275;DHT22;38228;50.940;4.024;2024-02-15T10:46:59;16.10;99.90
52275;DHT22;38228;50.940;4.024;2024-02-15T10:49:31;16.10;99.90
52275;DHT22;38228;50.940;4.024;2024-02-15T10:51:58;16.00;99.90
52275;DHT22;38228;50.940;4.024;2024-02-15T10:54:47;16.00;99.90
52275;DHT22;38228;50.940;4.024;2024-02-15T10:57:13;15.90;99.90
52275;DHT22;38228;50.940;4.024;2024-02-15T11:00:08;15.80;99.90
52275;DHT22;38228;50.940;4.024;2024-02-15T11:02:42;15.80;99.90
52275;DHT22;38228;50.940;4.024;2024-02-15T11:05:10;15.80;99.90
52275;DHT22;38228;50.940;4.024;2024-02-15T11:07:39;15.70;99.90
52275;DHT22;38228;50.940;4.024;2024-02-15T11:10:07;15.70;99.90
52275;DHT22;38228;50.940;4.024;2024-02-15T11:12:36;15.70;99.90
52275;DHT22;38228;50.940;4.024;2024-02-15T11:15:03;15.70;99.90
52275;DHT22;38228;50.940;4.024;2024-02-15T11:23:03;16.10;99.90
52275;DHT22;38228;50.940;4.024;2024-02-15T11:30:49;16.20;99.90
52275;DHT22;38228;50.940;4.024;2024-02-15T11:36:07;16.30;99.90
52275;DHT22;38228;50.940;4.024;2024-02-15T11:38:34;16.30;99.90
52275;DHT22;38228;50.940;4.024;2024-02-15T11:41:06;16.40;99.90
52275;DHT22;38228;50.940;4.024;2024-02-15T11:46:20;16.70;99.90
52275;DHT22;38228;50.940;4.024;2024-02-15T11:48:46;16.80;99.90
52275;DHT22;38228;50.940;4.024;2024-02-15T11:51:26;16.70;99.90
52275;DHT22;38228;50.940;4.024;2024-02-15T11:54:06;16.70;99.90
52275;DHT22;38228;50.940;4.024;2024-02-15T11:56:48;16.70;99.90
52275;DHT22;38228;50.940;4.024;2024-02-15T11:59:16;16.80;99.90
52275;DHT22;38228;50.940;4.024;2024-02-15T12:01:56;16.80;99.90
52275;DHT22;38228;50.940;4.024;2024-02-15T12:04:40;16.80;99.90
52275;DHT22;38228;50.940;4.024;2024-02-15T12:07:24;16.70;99.90
52275;DHT22;38228;50.940;4.024;2024-02-15T12:10:16;16.60;99.90
52275;DHT22;38228;50.940;4.024;2024-02-15T12:13:00;16.60;99.90
52275;DHT22;38228;50.940;4.024;2024-02-15T12:15:59;16.70;99.90
52275;DHT22;38228;50.940;4.024;2024-02-15T12:18:44;16.60;99.90
52275;DHT22;38228;50.940;4.024;2024-02-15T12:21:23;16.60;99.90
52275;DHT22;38228;50.940;4.024;2024-02-15T12:23:51;16.60;99.90
52275;DHT22;38228;50.940;4.024;2024-02-15T12:26:21;16.80;99.90
52275;DHT22;38228;50.940;4.024;2024-02-15T12:28:52;16.80;99.90
52275;DHT22;38228;50.940;4.024;2024-02-15T12:31:24;16.90;99.90
52275;DHT22;38228;50.940;4.024;2024-02-15T12:34:04;16.90;99.90
52275;DHT22;38228;50.940;4.024;2024-02-15T12:36:34;17.20;99.90
52275;DHT22;38228;50.940;4.024;2024-02-15T12:39:05;17.20;99.90
52275;DHT22;38228;50.940;4.024;2024-02-15T12:41:40;17.40;99.90
52275;DHT22;38228;50.940;4.024;2024-02-15T12:44:09;17.50;99.90
52275;DHT22;38228;50.940;4.024;2024-02-15T12:46:36;17.50;99.90
52275;DHT22;38228;50.940;4.024;2024-02-15T12:51:53;17.70;99.90
52275;DHT22;38228;50.940;4.024;2024-02-15T12:54:22;17.80;99.90
52275;DHT22;38228;50.940;4.024;2024-02-15T12:56:48;17.80;99.90
52275;DHT22;38228;50.940;4.024;2024-02-15T12:59:14;17.70;99.90
52275;DHT22;38228;50.940;4.024;2024-02-15T13:01:40;17.70;99.90
52275;DHT22;38228;50.940;4.024;2024-02-15T13:04:06;17.60;99.90
52275;DHT22;38228;50.940;4.024;2024-02-15T13:06:33;17.70;99.90
52275;DHT22;38228;50.940;4.024;2024-02-15T13:09:01;17.90;99.90
52275;DHT22;38228;50.940;4.024;2024-02-15T13:11:29;17.90;99.90
52275;DHT22;38228;50.940;4.024;2024-02-15T13:13:54;18.10;99.90
52275;DHT22;38228;50.940;4.024;2024-02-15T13:16:20;18.00;99.90
52275;DHT22;38228;50.940;4.024;2024-02-15T13:18:49;17.90;99.90
52275;DHT22;38228;50.940;4.024;2024-02-15T13:21:14;17.90;99.90
52275;DHT22;38228;50.940;4.024;2024-02-15T13:23:40;17.80;99.90
52275;DHT22;38228;50.940;4.024;2024-02-15T13:26:05;17.80;99.90
52275;DHT22;38228;50.940;4.024;2024-02-15T13:28:33;17.90;99.90
52275;DHT22;38228;50.940;4.024;2024-02-15T13:30:59;18.00;99.90
52275;DHT22;38228;50.940;4.024;2024-02-15T13:33:25;18.00;99.90
52275;DHT22;38228;50.940;4.024;2024-02-15T13:35:52;18.10;99.90
52275;DHT22;38228;50.940;4.024;2024-02-15T13:38:18;18.10;99.90
52275;DHT22;38228;50.940;4.024;2024-02-15T13:40:49;18.00;99.90
52275;DHT22;38228;50.940;4.024;2024-02-15T13:43:16;18.00;99.90
52275;DHT22;38228;50.940;4.024;2024-02-15T13:45:43;17.90;99.90
52275;DHT22;38228;50.940;4.024;2024-02-15T13:48:10;17.90;99.90
52275;DHT22;38228;50.940;4.024;2024-02-15T13:50:38;17.90;99.90
52275;DHT22;38228;50.940;4.024;2024-02-15T13:53:05;17.90;99.90
52275;DHT22;38228;50.940;4.024;2024-02-15T13:55:31;17.90;99.90
52275;DHT22;38228;50.940;4.024;2024-02-15T13:57:57;17.90;99.90
52275;DHT22;38228;50.940;4.024;2024-02-15T14:00:23;18.00;99.90
52275;DHT22;38228;50.940;4.024;2024-02-15T14:02:56;17.90;99.90
52275;DHT22;38228;50.940;4.024;2024-02-15T14:05:24;17.90;99.90
52275;DHT22;38228;50.940;4.024;2024-02-15T14:07:52;17.90;99.90
52275;DHT22;38228;50.940;4.024;2024-02-15T14:10:22;17.80;99.90
52275;DHT22;38228;50.940;4.024;2024-02-15T14:12:48;17.80;99.90
52275;DHT22;38228;50.940;4.024;2024-02-15T14:15:15;17.80;99.90
52275;DHT22;38228;50.940;4.024;2024-02-15T14:17:43;17.70;99.90
52275;DHT22;38228;50.940;4.024;2024-02-15T14:20:10;17.80;99.90
52275;DHT22;38228;50.940;4.024;2024-02-15T14:22:49;18.00;99.90
52275;DHT22;38228;50.940;4.024;2024-02-15T14:25:21;18.00;99.90
52275;DHT22;38228;50.940;4.024;2024-02-15T14:27:47;17.90;99.90
52275;DHT22;38228;50.940;4.024;2024-02-15T14:30:13;17.90;99.90
52275;DHT22;38228;50.940;4.024;2024-02-15T14:32:58;17.90;99.90
52275;DHT22;38228;50.940;4.024;2024-02-15T14:35:31;17.90;99.90
52275;DHT22;38228;50.940;4.024;2024-02-15T14:38:00;17.80;99.90
52275;DHT22;38228;50.940;4.024;2024-02-15T14:40:28;17.80;99.90
52275;DHT22;38228;50.940;4.024;2024-02-15T14:42:54;17.60;99.90
52275;DHT22;38228;50.940;4.024;2024-02-15T14:45:20;17.50;99.90
52275;DHT22;38228;50.940;4.024;2024-02-15T14:47:47;17.50;99.90
52275;DHT22;38228;50.940;4.024;2024-02-15T14:50:13;17.50;99.90
52275;DHT22;38228;50.940;4.024;2024-02-15T14:52:39;17.60;99.90
52275;DHT22;38228;50.940;4.024;2024-02-15T14:55:05;17.50;99.90
52275;DHT22;38228;50.940;4.024;2024-02-15T14:57:33;17.40;99.90
52275;DHT22;38228;50.940;4.024;2024-02-15T14:59:59;17.40;99.90
52275;DHT22;38228;50.940;4.024;2024-02-15T15:02:25;17.60;99.90
52275;DHT22;38228;50.940;4.024;2024-02-15T15:04:51;17.40;99.90
52275;DHT22;38228;50.940;4.024;2024-02-15T15:07:42;17.40;99.90
52275;DHT22;38228;50.940;4.024;2024-02-15T15:10:26;17.60;99.90
52275;DHT22;38228;50.940;4.024;2024-02-15T15:13:11;17.50;99.90
52275;DHT22;38228;50.940;4.024;2024-02-15T15:15:36;17.40;99.90
52275;DHT22;38228;50.940;4.024;2024-02-15T15:18:06;17.40;99.90
52275;DHT22;38228;50.940;4.024;2024-02-15T15:20:33;17.30;99.90
52275;DHT22;38228;50.940;4.024;2024-02-15T15:23:00;17.20;99.90
52275;DHT22;38228;50.940;4.024;2024-02-15T15:25:26;17.30;99.90
52275;DHT22;38228;50.940;4.024;2024-02-15T15:27:54;17.30;99.90
52275;DHT22;38228;50.940;4.024;2024-02-15T15:30:23;17.30;99.90
52275;DHT22;38228;50.940;4.024;2024-02-15T15:32:49;17.20;99.90
52275;DHT22;38228;50.940;4.024;2024-02-15T15:35:17;17.10;99.90
52275;DHT22;38228;50.940;4.024;2024-02-15T15:37:46;17.10;99.90
52275;DHT22;38228;50.940;4.024;2024-02-15T15:40:12;17.10;99.90
52275;DHT22;38228;50.940;4.024;2024-02-15T15:42:39;17.00;99.90
52275;DHT22;38228;50.940;4.024;2024-02-15T15:45:06;16.90;99.90
52275;DHT22;38228;50.940;4.024;2024-02-15T15:47:34;16.80;99.90
52275;DHT22;38228;50.940;4.024;2024-02-15T15:50:00;16.80;99.90
52275;DHT22;38228;50.940;4.024;2024-02-15T15:52:25;16.70;99.90
52275;DHT22;38228;50.940;4.024;2024-02-15T15:54:51;16.70;99.90
52275;DHT22;38228;50.940;4.024;2024-02-15T15:57:17;16.60;99.90